sensor_id;sensor_type;location;lat;lon;timestamp;P1;durP1;ratioP1;P2;durP2;ratioP2
67191;SDS011;54120;53.504;49.426;2023-09-19T00:00:42;14.15;;;11.02;;
67191;SDS011;54120;53.504;49.426;2023-09-19T00:03:09;16.67;;;12.70;;
67191;SDS011;54120;53.504;49.426;2023-09-19T00:05:37;14.70;;;12.65;;
67191;SDS011;54120;53.504;49.426;2023-09-19T00:08:05;18.65;;;12.88;;
67191;SDS011;54120;53.504;49.426;2023-09-19T00:10:32;18.95;;;13.18;;
67191;SDS011;54120;53.504;49.426;2023-09-19T00:13:00;22.25;;;13.43;;
67191;SDS011;54120;53.504;49.426;2023-09-19T00:15:39;17.90;;;12.57;;
67191;SDS011;54120;53.504;49.426;2023-09-19T00:18:07;20.70;;;13.02;;
67191;SDS011;54120;53.504;49.426;2023-09-19T00:20:35;15.02;;;11.60;;
67191;SDS011;54120;53.504;49.426;2023-09-19T00:23:02;16.42;;;11.45;;
67191;SDS011;54120;53.504;49.426;2023-09-19T00:25:29;16.73;;;12.60;;
67191;SDS011;54120;53.504;49.426;2023-09-19T00:27:57;13.73;;;10.90;;
67191;SDS011;54120;53.504;49.426;2023-09-19T00:30:23;14.65;;;11.23;;
67191;SDS011;54120;53.504;49.426;2023-09-19T00:32:50;15.77;;;11.45;;
67191;SDS011;54120;53.504;49.426;2023-09-19T00:35:23;16.38;;;12.60;;
67191;SDS011;54120;53.504;49.426;2023-09-19T00:37:53;14.18;;;11.25;;
67191;SDS011;54120;53.504;49.426;2023-09-19T00:40:19;14.98;;;12.00;;
67191;SDS011;54120;53.504;49.426;2023-09-19T00:42:47;14.15;;;11.57;;
67191;SDS011;54120;53.504;49.426;2023-09-19T00:45:15;16.00;;;12.50;;
67191;SDS011;54120;53.504;49.426;2023-09-19T00:47:44;17.13;;;12.25;;
67191;SDS011;54120;53.504;49.426;2023-09-19T00:50:12;17.63;;;12.40;;
67191;SDS011;54120;53.504;49.426;2023-09-19T00:52:41;21.60;;;12.15;;
67191;SDS011;54120;53.504;49.426;2023-09-19T00:55:09;14.52;;;12.80;;
67191;SDS011;54120;53.504;49.426;2023-09-19T00:57:40;16.60;;;12.73;;
67191;SDS011;54120;53.504;49.426;2023-09-19T01:00:06;14.00;;;12.50;;
67191;SDS011;54120;53.504;49.426;2023-09-19T01:02:34;18.90;;;11.95;;
67191;SDS011;54120;53.504;49.426;2023-09-19T01:05:04;14.40;;;11.80;;
67191;SDS011;54120;53.504;49.426;2023-09-19T01:07:31;18.70;;;11.57;;
67191;SDS011;54120;53.504;49.426;2023-09-19T01:10:04;18.05;;;12.43;;
67191;SDS011;54120;53.504;49.426;2023-09-19T01:30:58;15.93;;;11.80;;
67191;SDS011;54120;53.504;49.426;2023-09-19T01:33:27;19.33;;;11.80;;
67191;SDS011;54120;53.504;49.426;2023-09-19T01:35:59;14.00;;;11.23;;
67191;SDS011;54120;53.504;49.426;2023-09-19T01:38:26;20.25;;;11.10;;
67191;SDS011;54120;53.504;49.426;2023-09-19T01:41:03;15.35;;;11.95;;
67191;SDS011;54120;53.504;49.426;2023-09-19T01:43:41;15.10;;;10.93;;
67191;SDS011;54120;53.504;49.426;2023-09-19T01:46:17;13.60;;;10.43;;
67191;SDS011;54120;53.504;49.426;2023-09-19T01:52:05;14.90;;;11.13;;
67191;SDS011;54120;53.504;49.426;2023-09-19T01:54:46;14.80;;;11.05;;
67191;SDS011;54120;53.504;49.426;2023-09-19T01:57:40;14.73;;;10.95;;
67191;SDS011;54120;53.504;49.426;2023-09-19T02:00:09;20.75;;;10.93;;
67191;SDS011;54120;53.504;49.426;2023-09-19T02:02:37;17.80;;;12.23;;
67191;SDS011;54120;53.504;49.426;2023-09-19T02:05:08;67.55;;;46.17;;
67191;SDS011;54120;53.504;49.426;2023-09-19T02:07:35;65.40;;;43.20;;
67191;SDS011;54120;53.504;49.426;2023-09-19T02:10:04;16.10;;;12.35;;
67191;SDS011;54120;53.504;49.426;2023-09-19T02:12:32;21.42;;;11.35;;
67191;SDS011;54120;53.504;49.426;2023-09-19T02:14:58;16.70;;;11.75;;
67191;SDS011;54120;53.504;49.426;2023-09-19T02:17:25;19.00;;;13.18;;
67191;SDS011;54120;53.504;49.426;2023-09-19T02:19:52;25.73;;;15.95;;
67191;SDS011;54120;53.504;49.426;2023-09-19T02:22:19;23.02;;;14.48;;
67191;SDS011;54120;53.504;49.426;2023-09-19T02:24:45;22.38;;;14.80;;
67191;SDS011;54120;53.504;49.426;2023-09-19T02:27:13;18.77;;;13.57;;
67191;SDS011;54120;53.504;49.426;2023-09-19T02:29:42;19.77;;;12.68;;
67191;SDS011;54120;53.504;49.426;2023-09-19T02:32:08;43.22;;;29.42;;
67191;SDS011;54120;53.504;49.426;2023-09-19T02:34:35;19.92;;;11.80;;
67191;SDS011;54120;53.504;49.426;2023-09-19T02:37:05;25.20;;;11.73;;
67191;SDS011;54120;53.504;49.426;2023-09-19T02:39:32;15.02;;;12.50;;
67191;SDS011;54120;53.504;49.426;2023-09-19T02:41:58;24.42;;;13.27;;
67191;SDS011;54120;53.504;49.426;2023-09-19T02:44:24;18.58;;;12.50;;
67191;SDS011;54120;53.504;49.426;2023-09-19T02:46:51;20.27;;;13.15;;
67191;SDS011;54120;53.504;49.426;2023-09-19T02:49:17;16.23;;;11.48;;
67191;SDS011;54120;53.504;49.426;2023-09-19T02:51:43;16.17;;;12.10;;
67191;SDS011;54120;53.504;49.426;2023-09-19T02:54:10;19.33;;;12.80;;
67191;SDS011;54120;53.504;49.426;2023-09-19T02:56:37;18.15;;;13.07;;
67191;SDS011;54120;53.504;49.426;2023-09-19T02:59:03;16.90;;;12.25;;
67191;SDS011;54120;53.504;49.426;2023-09-19T03:01:29;17.42;;;12.05;;
67191;SDS011;54120;53.504;49.426;2023-09-19T03:03:55;19.38;;;12.32;;
67191;SDS011;54120;53.504;49.426;2023-09-19T03:06:21;21.67;;;11.30;;
67191;SDS011;54120;53.504;49.426;2023-09-19T03:08:49;15.10;;;10.43;;
67191;SDS011;54120;53.504;49.426;2023-09-19T03:11:17;15.20;;;9.27;;
67191;SDS011;54120;53.504;49.426;2023-09-19T03:13:53;19.38;;;9.23;;
67191;SDS011;54120;53.504;49.426;2023-09-19T03:16:19;17.27;;;9.80;;
67191;SDS011;54120;53.504;49.426;2023-09-19T03:18:47;18.50;;;8.40;;
67191;SDS011;54120;53.504;49.426;2023-09-19T03:21:17;21.45;;;8.90;;
67191;SDS011;54120;53.504;49.426;2023-09-19T03:23:44;12.07;;;8.68;;
67191;SDS011;54120;53.504;49.426;2023-09-19T03:26:11;18.17;;;8.23;;
67191;SDS011;54120;53.504;49.426;2023-09-19T03:28:38;11.20;;;7.82;;
67191;SDS011;54120;53.504;49.426;2023-09-19T03:31:04;16.77;;;8.32;;
67191;SDS011;54120;53.504;49.426;2023-09-19T03:33:31;10.23;;;8.13;;
67191;SDS011;54120;53.504;49.426;2023-09-19T03:35:58;12.23;;;8.50;;
67191;SDS011;54120;53.504;49.426;2023-09-19T03:38:26;11.75;;;7.75;;
67191;SDS011;54120;53.504;49.426;2023-09-19T03:40:54;12.10;;;7.90;;
67191;SDS011;54120;53.504;49.426;2023-09-19T03:43:20;10.88;;;7.72;;
67191;SDS011;54120;53.504;49.426;2023-09-19T03:45:47;15.80;;;7.85;;
67191;SDS011;54120;53.504;49.426;2023-09-19T03:48:15;13.20;;;7.85;;
67191;SDS011;54120;53.504;49.426;2023-09-19T03:50:41;13.75;;;8.00;;
67191;SDS011;54120;53.504;49.426;2023-09-19T03:53:09;10.82;;;8.52;;
67191;SDS011;54120;53.504;49.426;2023-09-19T03:55:35;10.90;;;9.02;;
67191;SDS011;54120;53.504;49.426;2023-09-19T03:58:01;11.23;;;7.65;;
67191;SDS011;54120;53.504;49.426;2023-09-19T04:00:27;11.20;;;7.43;;
67191;SDS011;54120;53.504;49.426;2023-09-19T04:02:55;13.60;;;7.60;;
67191;SDS011;54120;53.504;49.426;2023-09-19T04:05:22;15.25;;;7.75;;
67191;SDS011;54120;53.504;49.426;2023-09-19T04:07:49;12.45;;;7.75;;
67191;SDS011;54120;53.504;49.426;2023-09-19T04:10:16;11.55;;;7.30;;
67191;SDS011;54120;53.504;49.426;2023-09-19T04:12:52;17.02;;;11.75;;
67191;SDS011;54120;53.504;49.426;2023-09-19T04:15:19;12.77;;;7.75;;
67191;SDS011;54120;53.504;49.426;2023-09-19T04:17:47;16.00;;;8.00;;
67191;SDS011;54120;53.504;49.426;2023-09-19T04:20:17;10.52;;;7.80;;
67191;SDS011;54120;53.504;49.426;2023-09-19T04:22:45;11.98;;;8.75;;
67191;SDS011;54120;53.504;49.426;2023-09-19T04:25:14;10.93;;;8.05;;
67191;SDS011;54120;53.504;49.426;2023-09-19T04:27:41;10.02;;;7.78;;
67191;SDS011;54120;53.504;49.426;2023-09-19T04:30:07;9.73;;;7.38;;
67191;SDS011;54120;53.504;49.426;2023-09-19T04:32:38;8.30;;;7.28;;
67191;SDS011;54120;53.504;49.426;2023-09-19T04:35:07;11.55;;;6.50;;
67191;SDS011;54120;53.504;49.426;2023-09-19T04:37:39;8.43;;;6.68;;
67191;SDS011;54120;53.504;49.426;2023-09-19T04:40:07;12.35;;;6.70;;
67191;SDS011;54120;53.504;49.426;2023-09-19T04:42:43;6.93;;;6.22;;
67191;SDS011;54120;53.504;49.426;2023-09-19T04:45:10;8.93;;;7.13;;
67191;SDS011;54120;53.504;49.426;2023-09-19T04:47:36;14.30;;;7.43;;
67191;SDS011;54120;53.504;49.426;2023-09-19T04:50:09;8.05;;;6.32;;
67191;SDS011;54120;53.504;49.426;2023-09-19T04:52:42;9.57;;;6.13;;
67191;SDS011;54120;53.504;49.426;2023-09-19T04:55:11;9.65;;;6.15;;
67191;SDS011;54120;53.504;49.426;2023-09-19T04:57:44;11.85;;;6.45;;
67191;SDS011;54120;53.504;49.426;2023-09-19T05:00:12;7.03;;;6.05;;
67191;SDS011;54120;53.504;49.426;2023-09-19T05:02:43;7.75;;;6.20;;
67191;SDS011;54120;53.504;49.426;2023-09-19T05:05:09;9.88;;;5.88;;
67191;SDS011;54120;53.504;49.426;2023-09-19T05:07:40;11.90;;;6.00;;
67191;SDS011;54120;53.504;49.426;2023-09-19T05:10:08;10.20;;;5.60;;
67191;SDS011;54120;53.504;49.426;2023-09-19T05:12:35;7.90;;;5.80;;
67191;SDS011;54120;53.504;49.426;2023-09-19T05:15:02;10.15;;;6.30;;
67191;SDS011;54120;53.504;49.426;2023-09-19T05:17:29;10.65;;;6.38;;
67191;SDS011;54120;53.504;49.426;2023-09-19T05:19:57;9.27;;;6.50;;
67191;SDS011;54120;53.504;49.426;2023-09-19T05:22:26;11.93;;;6.30;;
67191;SDS011;54120;53.504;49.426;2023-09-19T05:24:52;11.63;;;6.05;;
67191;SDS011;54120;53.504;49.426;2023-09-19T05:27:20;9.80;;;6.30;;
67191;SDS011;54120;53.504;49.426;2023-09-19T05:29:46;8.88;;;6.25;;
67191;SDS011;54120;53.504;49.426;2023-09-19T05:32:16;9.68;;;5.75;;
67191;SDS011;54120;53.504;49.426;2023-09-19T05:34:45;10.75;;;6.03;;
67191;SDS011;54120;53.504;49.426;2023-09-19T05:37:12;9.88;;;5.93;;
67191;SDS011;54120;53.504;49.426;2023-09-19T05:39:41;9.02;;;6.18;;
67191;SDS011;54120;53.504;49.426;2023-09-19T05:42:08;9.57;;;5.88;;
67191;SDS011;54120;53.504;49.426;2023-09-19T05:44:35;9.55;;;5.80;;
67191;SDS011;54120;53.504;49.426;2023-09-19T05:47:02;8.38;;;5.95;;
67191;SDS011;54120;53.504;49.426;2023-09-19T05:49:29;8.23;;;5.90;;
67191;SDS011;54120;53.504;49.426;2023-09-19T05:51:55;9.20;;;5.90;;
67191;SDS011;54120;53.504;49.426;2023-09-19T05:54:22;7.05;;;6.20;;
67191;SDS011;54120;53.504;49.426;2023-09-19T05:56:49;8.63;;;6.30;;
67191;SDS011;54120;53.504;49.426;2023-09-19T05:59:19;7.40;;;5.97;;
67191;SDS011;54120;53.504;49.426;2023-09-19T06:01:46;9.02;;;5.60;;
67191;SDS011;54120;53.504;49.426;2023-09-19T06:04:13;7.43;;;5.70;;
67191;SDS011;54120;53.504;49.426;2023-09-19T06:06:40;6.45;;;5.50;;
67191;SDS011;54120;53.504;49.426;2023-09-19T06:09:06;5.18;;;4.30;;
67191;SDS011;54120;53.504;49.426;2023-09-19T06:11:35;5.68;;;4.32;;
67191;SDS011;54120;53.504;49.426;2023-09-19T06:14:03;6.30;;;4.85;;
67191;SDS011;54120;53.504;49.426;2023-09-19T06:16:30;6.57;;;4.60;;
67191;SDS011;54120;53.504;49.426;2023-09-19T06:18:59;4.97;;;4.40;;
67191;SDS011;54120;53.504;49.426;2023-09-19T06:21:29;7.03;;;4.78;;
67191;SDS011;54120;53.504;49.426;2023-09-19T06:23:55;6.20;;;4.47;;
67191;SDS011;54120;53.504;49.426;2023-09-19T06:26:23;8.65;;;4.57;;
67191;SDS011;54120;53.504;49.426;2023-09-19T06:28:52;6.78;;;3.97;;
67191;SDS011;54120;53.504;49.426;2023-09-19T06:31:18;5.82;;;3.60;;
67191;SDS011;54120;53.504;49.426;2023-09-19T06:33:49;9.98;;;3.83;;
67191;SDS011;54120;53.504;49.426;2023-09-19T06:36:15;7.72;;;4.30;;
67191;SDS011;54120;53.504;49.426;2023-09-19T06:38:43;6.10;;;3.70;;
67191;SDS011;54120;53.504;49.426;2023-09-19T06:41:10;6.82;;;3.63;;
67191;SDS011;54120;53.504;49.426;2023-09-19T06:43:37;5.85;;;3.72;;
67191;SDS011;54120;53.504;49.426;2023-09-19T06:46:04;4.88;;;3.10;;
67191;SDS011;54120;53.504;49.426;2023-09-19T06:48:32;4.95;;;3.40;;
67191;SDS011;54120;53.504;49.426;2023-09-19T06:50:59;3.38;;;3.08;;
67191;SDS011;54120;53.504;49.426;2023-09-19T06:53:33;6.10;;;2.90;;
67191;SDS011;54120;53.504;49.426;2023-09-19T06:56:01;4.75;;;3.90;;
67191;SDS011;54120;53.504;49.426;2023-09-19T06:58:28;4.90;;;3.60;;
67191;SDS011;54120;53.504;49.426;2023-09-19T07:00:54;9.23;;;3.50;;
67191;SDS011;54120;53.504;49.426;2023-09-19T07:03:20;5.28;;;3.20;;
67191;SDS011;54120;53.504;49.426;2023-09-19T07:05:47;7.82;;;3.03;;
67191;SDS011;54120;53.504;49.426;2023-09-19T07:08:14;8.18;;;3.00;;
67191;SDS011;54120;53.504;49.426;2023-09-19T07:10:41;6.15;;;3.10;;
67191;SDS011;54120;53.504;49.426;2023-09-19T07:13:14;5.47;;;3.10;;
67191;SDS011;54120;53.504;49.426;2023-09-19T07:15:42;3.25;;;2.90;;
67191;SDS011;54120;53.504;49.426;2023-09-19T07:18:12;4.32;;;3.10;;
67191;SDS011;54120;53.504;49.426;2023-09-19T07:20:40;6.28;;;3.22;;
67191;SDS011;54120;53.504;49.426;2023-09-19T07:23:11;5.32;;;3.58;;
67191;SDS011;54120;53.504;49.426;2023-09-19T07:25:40;5.13;;;3.80;;
67191;SDS011;54120;53.504;49.426;2023-09-19T07:28:07;6.25;;;3.88;;
67191;SDS011;54120;53.504;49.426;2023-09-19T07:30:35;4.50;;;4.10;;
67191;SDS011;54120;53.504;49.426;2023-09-19T07:33:03;6.15;;;3.20;;
67191;SDS011;54120;53.504;49.426;2023-09-19T07:35:30;7.35;;;3.67;;
67191;SDS011;54120;53.504;49.426;2023-09-19T07:37:56;3.45;;;3.00;;
67191;SDS011;54120;53.504;49.426;2023-09-19T07:40:27;5.60;;;3.28;;
67191;SDS011;54120;53.504;49.426;2023-09-19T07:42:57;4.55;;;2.55;;
67191;SDS011;54120;53.504;49.426;2023-09-19T07:45:28;2.67;;;2.47;;
67191;SDS011;54120;53.504;49.426;2023-09-19T07:47:56;4.20;;;2.55;;
67191;SDS011;54120;53.504;49.426;2023-09-19T07:50:22;2.40;;;2.20;;
67191;SDS011;54120;53.504;49.426;2023-09-19T07:52:49;4.35;;;2.50;;
67191;SDS011;54120;53.504;49.426;2023-09-19T07:55:19;4.07;;;2.85;;
67191;SDS011;54120;53.504;49.426;2023-09-19T07:57:52;3.65;;;2.80;;
67191;SDS011;54120;53.504;49.426;2023-09-19T08:00:18;3.60;;;2.40;;
67191;SDS011;54120;53.504;49.426;2023-09-19T08:02:45;4.90;;;2.72;;
67191;SDS011;54120;53.504;49.426;2023-09-19T08:05:13;2.70;;;2.50;;
67191;SDS011;54120;53.504;49.426;2023-09-19T08:07:44;2.95;;;2.42;;
67191;SDS011;54120;53.504;49.426;2023-09-19T08:10:14;5.15;;;2.40;;
67191;SDS011;54120;53.504;49.426;2023-09-19T08:12:42;3.03;;;2.80;;
67191;SDS011;54120;53.504;49.426;2023-09-19T08:15:16;6.78;;;2.67;;
67191;SDS011;54120;53.504;49.426;2023-09-19T08:17:46;4.65;;;2.95;;
67191;SDS011;54120;53.504;49.426;2023-09-19T08:20:12;8.35;;;2.80;;
67191;SDS011;54120;53.504;49.426;2023-09-19T08:22:43;5.30;;;2.65;;
67191;SDS011;54120;53.504;49.426;2023-09-19T08:25:13;3.33;;;3.03;;
67191;SDS011;54120;53.504;49.426;2023-09-19T08:27:46;3.17;;;2.85;;
67191;SDS011;54120;53.504;49.426;2023-09-19T08:30:14;3.97;;;2.90;;
67191;SDS011;54120;53.504;49.426;2023-09-19T08:32:42;3.30;;;2.47;;
67191;SDS011;54120;53.504;49.426;2023-09-19T08:35:09;6.32;;;2.47;;
67191;SDS011;54120;53.504;49.426;2023-09-19T08:37:36;2.75;;;2.45;;
67191;SDS011;54120;53.504;49.426;2023-09-19T08:40:02;3.20;;;2.70;;
67191;SDS011;54120;53.504;49.426;2023-09-19T08:42:29;3.67;;;2.30;;
67191;SDS011;54120;53.504;49.426;2023-09-19T08:44:56;2.58;;;2.38;;
67191;SDS011;54120;53.504;49.426;2023-09-19T08:47:38;5.88;;;2.33;;
67191;SDS011;54120;53.504;49.426;2023-09-19T08:50:17;2.75;;;2.55;;
67191;SDS011;54120;53.504;49.426;2023-09-19T08:52:51;3.78;;;2.50;;
67191;SDS011;54120;53.504;49.426;2023-09-19T08:55:20;3.85;;;2.28;;
67191;SDS011;54120;53.504;49.426;2023-09-19T08:57:52;4.60;;;2.42;;
67191;SDS011;54120;53.504;49.426;2023-09-19T09:00:30;2.42;;;2.25;;
67191;SDS011;54120;53.504;49.426;2023-09-19T09:02:57;3.70;;;2.17;;
67191;SDS011;54120;53.504;49.426;2023-09-19T09:05:24;3.97;;;2.20;;
67191;SDS011;54120;53.504;49.426;2023-09-19T09:07:52;3.05;;;2.30;;
67191;SDS011;54120;53.504;49.426;2023-09-19T09:10:22;2.80;;;2.30;;
67191;SDS011;54120;53.504;49.426;2023-09-19T09:12:51;3.17;;;2.25;;
67191;SDS011;54120;53.504;49.426;2023-09-19T09:15:19;2.40;;;2.20;;
67191;SDS011;54120;53.504;49.426;2023-09-19T09:17:47;3.22;;;2.42;;
67191;SDS011;54120;53.504;49.426;2023-09-19T09:20:19;4.60;;;2.20;;
67191;SDS011;54120;53.504;49.426;2023-09-19T09:25:20;2.83;;;2.63;;
67191;SDS011;54120;53.504;49.426;2023-09-19T09:28:00;2.80;;;2.50;;
67191;SDS011;54120;53.504;49.426;2023-09-19T09:30:34;7.88;;;2.55;;
67191;SDS011;54120;53.504;49.426;2023-09-19T09:33:11;2.65;;;2.42;;
67191;SDS011;54120;53.504;49.426;2023-09-19T09:38:23;6.80;;;2.38;;
67191;SDS011;54120;53.504;49.426;2023-09-19T09:40:54;5.28;;;3.08;;
67191;SDS011;54120;53.504;49.426;2023-09-19T09:43:36;4.15;;;2.70;;
67191;SDS011;54120;53.504;49.426;2023-09-19T09:48:56;6.72;;;2.47;;
67191;SDS011;54120;53.504;49.426;2023-09-19T09:51:58;2.88;;;2.63;;
67191;SDS011;54120;53.504;49.426;2023-09-19T09:54:27;3.10;;;2.20;;
67191;SDS011;54120;53.504;49.426;2023-09-19T09:57:00;4.40;;;2.28;;
67191;SDS011;54120;53.504;49.426;2023-09-19T09:59:55;2.40;;;2.08;;
67191;SDS011;54120;53.504;49.426;2023-09-19T10:02:42;4.47;;;2.42;;
67191;SDS011;54120;53.504;49.426;2023-09-19T10:08:09;5.28;;;2.30;;
67191;SDS011;54120;53.504;49.426;2023-09-19T10:10:39;5.50;;;2.20;;
67191;SDS011;54120;53.504;49.426;2023-09-19T10:13:11;2.00;;;1.90;;
67191;SDS011;54120;53.504;49.426;2023-09-19T10:15:43;8.07;;;2.63;;
67191;SDS011;54120;53.504;49.426;2023-09-19T10:18:21;3.65;;;2.03;;
67191;SDS011;54120;53.504;49.426;2023-09-19T10:20:49;4.25;;;2.00;;
67191;SDS011;54120;53.504;49.426;2023-09-19T10:23:20;2.65;;;2.00;;
67191;SDS011;54120;53.504;49.426;2023-09-19T10:25:52;1.88;;;1.77;;
67191;SDS011;54120;53.504;49.426;2023-09-19T10:28:20;2.10;;;1.90;;
67191;SDS011;54120;53.504;49.426;2023-09-19T10:30:51;2.45;;;1.88;;
67191;SDS011;54120;53.504;49.426;2023-09-19T10:33:22;6.35;;;1.90;;
67191;SDS011;54120;53.504;49.426;2023-09-19T10:35:53;3.50;;;2.13;;
67191;SDS011;54120;53.504;49.426;2023-09-19T10:38:25;1.92;;;1.83;;
67191;SDS011;54120;53.504;49.426;2023-09-19T10:40:54;2.17;;;1.95;;
67191;SDS011;54120;53.504;49.426;2023-09-19T10:43:25;1.90;;;1.70;;
67191;SDS011;54120;53.504;49.426;2023-09-19T10:45:57;3.08;;;1.80;;
67191;SDS011;54120;53.504;49.426;2023-09-19T10:48:29;2.22;;;1.92;;
67191;SDS011;54120;53.504;49.426;2023-09-19T10:53:32;2.72;;;1.80;;
67191;SDS011;54120;53.504;49.426;2023-09-19T10:56:32;8.20;;;1.90;;
67191;SDS011;54120;53.504;49.426;2023-09-19T10:59:09;6.07;;;2.13;;
67191;SDS011;54120;53.504;49.426;2023-09-19T11:01:51;5.40;;;1.80;;
67191;SDS011;54120;53.504;49.426;2023-09-19T11:07:09;3.42;;;1.80;;
67191;SDS011;54120;53.504;49.426;2023-09-19T11:09:46;1.77;;;1.67;;
67191;SDS011;54120;53.504;49.426;2023-09-19T11:15:02;2.97;;;1.50;;
67191;SDS011;54120;53.504;49.426;2023-09-19T11:17:43;1.67;;;1.58;;
67191;SDS011;54120;53.504;49.426;2023-09-19T11:30:39;2.88;;;1.60;;
67191;SDS011;54120;53.504;49.426;2023-09-19T11:33:25;1.52;;;1.40;;
67191;SDS011;54120;53.504;49.426;2023-09-19T11:36:12;1.40;;;1.30;;
67191;SDS011;54120;53.504;49.426;2023-09-19T11:49:17;4.07;;;1.58;;
67191;SDS011;54120;53.504;49.426;2023-09-19T11:52:04;1.60;;;1.50;;
67191;SDS011;54120;53.504;49.426;2023-09-19T11:54:31;4.03;;;1.50;;
67191;SDS011;54120;53.504;49.426;2023-09-19T11:56:59;3.30;;;1.50;;
67191;SDS011;54120;53.504;49.426;2023-09-19T11:59:29;1.50;;;1.40;;
67191;SDS011;54120;53.504;49.426;2023-09-19T12:02:06;1.55;;;1.40;;
67191;SDS011;54120;53.504;49.426;2023-09-19T12:04:40;2.03;;;1.80;;
67191;SDS011;54120;53.504;49.426;2023-09-19T12:07:10;3.40;;;1.60;;
67191;SDS011;54120;53.504;49.426;2023-09-19T12:09:42;2.53;;;1.50;;
67191;SDS011;54120;53.504;49.426;2023-09-19T12:12:25;1.77;;;1.50;;
67191;SDS011;54120;53.504;49.426;2023-09-19T12:15:01;1.60;;;1.50;;
67191;SDS011;54120;53.504;49.426;2023-09-19T12:20:06;2.75;;;1.50;;
67191;SDS011;54120;53.504;49.426;2023-09-19T12:22:42;2.53;;;1.40;;
67191;SDS011;54120;53.504;49.426;2023-09-19T12:25:10;3.65;;;1.40;;
67191;SDS011;54120;53.504;49.426;2023-09-19T12:27:44;2.92;;;1.52;;
67191;SDS011;54120;53.504;49.426;2023-09-19T12:30:18;3.80;;;1.90;;
67191;SDS011;54120;53.504;49.426;2023-09-19T12:32:48;1.95;;;1.40;;
67191;SDS011;54120;53.504;49.426;2023-09-19T12:35:28;3.30;;;1.50;;
67191;SDS011;54120;53.504;49.426;2023-09-19T12:37:56;2.85;;;1.50;;
67191;SDS011;54120;53.504;49.426;2023-09-19T12:40:22;2.40;;;1.30;;
67191;SDS011;54120;53.504;49.426;2023-09-19T12:42:56;3.03;;;1.60;;
67191;SDS011;54120;53.504;49.426;2023-09-19T12:45:28;2.42;;;1.48;;
67191;SDS011;54120;53.504;49.426;2023-09-19T12:51:08;1.60;;;1.50;;
67191;SDS011;54120;53.504;49.426;2023-09-19T12:56:12;2.22;;;1.50;;
67191;SDS011;54120;53.504;49.426;2023-09-19T12:58:53;3.47;;;1.50;;
67191;SDS011;54120;53.504;49.426;2023-09-19T13:01:19;1.60;;;1.50;;
67191;SDS011;54120;53.504;49.426;2023-09-19T13:04:09;3.45;;;1.58;;
67191;SDS011;54120;53.504;49.426;2023-09-19T13:06:53;2.45;;;1.42;;
67191;SDS011;54120;53.504;49.426;2023-09-19T13:09:21;5.68;;;2.88;;
67191;SDS011;54120;53.504;49.426;2023-09-19T13:11:53;6.78;;;2.33;;
67191;SDS011;54120;53.504;49.426;2023-09-19T13:14:20;4.22;;;1.50;;
67191;SDS011;54120;53.504;49.426;2023-09-19T13:25:07;1.85;;;1.70;;
67191;SDS011;54120;53.504;49.426;2023-09-19T13:27:40;2.38;;;1.67;;
67191;SDS011;54120;53.504;49.426;2023-09-19T13:30:07;4.50;;;2.00;;
67191;SDS011;54120;53.504;49.426;2023-09-19T13:32:33;2.25;;;1.63;;
67191;SDS011;54120;53.504;49.426;2023-09-19T13:34:59;5.75;;;2.38;;
67191;SDS011;54120;53.504;49.426;2023-09-19T13:37:25;2.25;;;1.70;;
67191;SDS011;54120;53.504;49.426;2023-09-19T13:39:52;5.45;;;2.10;;
67191;SDS011;54120;53.504;49.426;2023-09-19T13:42:19;3.85;;;1.77;;
67191;SDS011;54120;53.504;49.426;2023-09-19T13:44:47;2.33;;;1.73;;
67191;SDS011;54120;53.504;49.426;2023-09-19T13:47:13;5.15;;;2.10;;
67191;SDS011;54120;53.504;49.426;2023-09-19T13:49:43;4.88;;;1.73;;
67191;SDS011;54120;53.504;49.426;2023-09-19T13:52:10;4.57;;;1.70;;
67191;SDS011;54120;53.504;49.426;2023-09-19T13:54:38;2.45;;;1.80;;
67191;SDS011;54120;53.504;49.426;2023-09-19T13:57:05;2.45;;;1.90;;
67191;SDS011;54120;53.504;49.426;2023-09-19T13:59:31;1.90;;;1.80;;
67191;SDS011;54120;53.504;49.426;2023-09-19T14:01:57;5.38;;;2.00;;
67191;SDS011;54120;53.504;49.426;2023-09-19T14:04:23;3.65;;;2.28;;
67191;SDS011;54120;53.504;49.426;2023-09-19T14:06:49;6.57;;;2.70;;
67191;SDS011;54120;53.504;49.426;2023-09-19T14:09:15;6.97;;;2.53;;
67191;SDS011;54120;53.504;49.426;2023-09-19T14:11:45;4.25;;;2.33;;
67191;SDS011;54120;53.504;49.426;2023-09-19T14:14:12;4.30;;;2.15;;
67191;SDS011;54120;53.504;49.426;2023-09-19T14:16:39;6.05;;;2.28;;
67191;SDS011;54120;53.504;49.426;2023-09-19T14:19:07;7.82;;;2.80;;
67191;SDS011;54120;53.504;49.426;2023-09-19T14:21:33;14.02;;;6.32;;
67191;SDS011;54120;53.504;49.426;2023-09-19T14:23:59;7.63;;;4.70;;
67191;SDS011;54120;53.504;49.426;2023-09-19T14:26:25;9.75;;;6.15;;
67191;SDS011;54120;53.504;49.426;2023-09-19T14:28:51;11.93;;;6.25;;
67191;SDS011;54120;53.504;49.426;2023-09-19T14:31:17;7.50;;;4.45;;
67191;SDS011;54120;53.504;49.426;2023-09-19T14:33:43;8.60;;;4.55;;
67191;SDS011;54120;53.504;49.426;2023-09-19T14:36:09;11.38;;;5.93;;
67191;SDS011;54120;53.504;49.426;2023-09-19T14:38:36;10.45;;;5.85;;
67191;SDS011;54120;53.504;49.426;2023-09-19T14:41:03;12.38;;;7.00;;
67191;SDS011;54120;53.504;49.426;2023-09-19T14:43:31;11.23;;;7.35;;
67191;SDS011;54120;53.504;49.426;2023-09-19T14:46:07;14.02;;;7.18;;
67191;SDS011;54120;53.504;49.426;2023-09-19T14:48:34;12.13;;;7.13;;
67191;SDS011;54120;53.504;49.426;2023-09-19T14:51:04;13.32;;;7.18;;
67191;SDS011;54120;53.504;49.426;2023-09-19T14:53:37;13.07;;;8.02;;
67191;SDS011;54120;53.504;49.426;2023-09-19T14:56:04;13.07;;;7.97;;
67191;SDS011;54120;53.504;49.426;2023-09-19T14:58:31;10.70;;;7.30;;
67191;SDS011;54120;53.504;49.426;2023-09-19T15:03:39;12.73;;;6.82;;
67191;SDS011;54120;53.504;49.426;2023-09-19T15:06:07;12.52;;;5.78;;
67191;SDS011;54120;53.504;49.426;2023-09-19T15:08:35;9.38;;;5.72;;
67191;SDS011;54120;53.504;49.426;2023-09-19T15:11:04;9.43;;;5.40;;
67191;SDS011;54120;53.504;49.426;2023-09-19T15:13:31;7.90;;;5.72;;
67191;SDS011;54120;53.504;49.426;2023-09-19T15:16:04;10.52;;;5.45;;
67191;SDS011;54120;53.504;49.426;2023-09-19T15:18:39;12.38;;;5.70;;
67191;SDS011;54120;53.504;49.426;2023-09-19T15:21:08;11.40;;;5.57;;
67191;SDS011;54120;53.504;49.426;2023-09-19T15:23:38;10.10;;;5.88;;
67191;SDS011;54120;53.504;49.426;2023-09-19T15:26:07;12.25;;;5.70;;
67191;SDS011;54120;53.504;49.426;2023-09-19T15:28:42;8.93;;;5.13;;
67191;SDS011;54120;53.504;49.426;2023-09-19T15:31:09;11.48;;;6.10;;
67191;SDS011;54120;53.504;49.426;2023-09-19T15:33:37;13.10;;;7.05;;
67191;SDS011;54120;53.504;49.426;2023-09-19T15:36:07;17.08;;;9.13;;
67191;SDS011;54120;53.504;49.426;2023-09-19T15:41:25;16.42;;;10.43;;
67191;SDS011;54120;53.504;49.426;2023-09-19T15:43:52;20.42;;;9.18;;
67191;SDS011;54120;53.504;49.426;2023-09-19T15:46:19;23.15;;;9.70;;
67191;SDS011;54120;53.504;49.426;2023-09-19T15:48:46;22.60;;;9.98;;
67191;SDS011;54120;53.504;49.426;2023-09-19T15:51:13;22.08;;;12.82;;
67191;SDS011;54120;53.504;49.426;2023-09-19T15:53:46;27.63;;;11.52;;
67191;SDS011;54120;53.504;49.426;2023-09-19T15:56:17;23.65;;;10.65;;
67191;SDS011;54120;53.504;49.426;2023-09-19T15:58:44;21.33;;;9.93;;
67191;SDS011;54120;53.504;49.426;2023-09-19T16:01:11;16.30;;;9.70;;
67191;SDS011;54120;53.504;49.426;2023-09-19T16:03:39;27.92;;;10.32;;